Time;durP1;ratioP1;P1;durP2;ratioP2;P2;SDS_P1;SDS_P2;PMS_P1;PMS_P2;Temp;Humidity;BMP_temperature;BMP_pressure;BME280_temperature;BME280_humidity;BME280_pressure;Samples;Min_cycle;Max_cycle;Signal;HPM_P1;HPM_P2
2022/11/07 00:00:58;;;;;;;16.63;11.40;;;8.00;99.90;;;;;;5065787;28;20196;-69
2022/11/07 00:03:23;;;;;;;19.77;12.17;;;8.00;99.90;;;;;;5047969;28;20186;-73
2022/11/07 00:05:49;;;;;;;19.40;12.93;;;8.00;99.90;;;;;;5061093;28;20559;-72
2022/11/07 00:08:14;;;;;;;18.23;11.40;;;8.00;99.90;;;;;;5054814;28;20205;-72
2022/11/07 00:10:40;;;;;;;18.53;12.50;;;8.10;99.90;;;;;;5065472;28;20740;-71
2022/11/07 00:13:05;;;;;;;18.13;12.80;;;8.10;99.90;;;;;;5066372;28;20225;-72
2022/11/07 00:15:31;;;;;;;20.80;12.57;;;8.10;99.90;;;;;;5062208;28;20179;-73
2022/11/07 00:17:57;;;;;;;16.63;11.00;;;8.10;99.90;;;;;;5061961;28;20210;-71
2022/11/07 00:20:23;;;;;;;18.87;12.23;;;8.10;99.90;;;;;;5066154;28;20237;-72
2022/11/07 00:22:48;;;;;;;16.57;11.90;;;8.10;99.90;;;;;;5068788;28;20183;-70
2022/11/07 00:25:14;;;;;;;19.17;12.23;;;8.10;99.90;;;;;;5066090;22;20232;-77
2022/11/07 00:27:39;;;;;;;18.90;11.57;;;8.10;99.90;;;;;;5046085;28;20560;-78
2022/11/07 00:30:05;;;;;;;19.80;12.27;;;8.10;99.90;;;;;;5044295;28;20176;-79
2022/11/07 00:32:31;;;;;;;16.53;10.73;;;8.20;99.90;;;;;;5047748;28;20282;-79
2022/11/07 00:34:57;;;;;;;18.97;11.73;;;8.20;99.90;;;;;;5045565;28;20742;-77
2022/11/07 00:37:22;;;;;;;16.83;12.07;;;8.10;99.90;;;;;;5058757;28;20568;-76
2022/11/07 00:39:48;;;;;;;17.40;11.83;;;8.10;99.90;;;;;;5050027;28;20245;-77
2022/11/07 00:42:13;;;;;;;18.27;11.23;;;8.10;99.90;;;;;;5058265;28;20260;-77
2022/11/07 00:44:39;;;;;;;17.57;11.83;;;8.10;99.90;;;;;;5068107;28;20230;-78
2022/11/07 00:47:04;;;;;;;16.80;11.27;;;8.20;99.90;;;;;;5065649;28;20183;-74
2022/11/07 00:49:30;;;;;;;18.13;11.77;;;8.20;99.90;;;;;;5055527;28;20180;-75
2022/11/07 00:51:55;;;;;;;18.77;11.50;;;8.10;99.90;;;;;;5060005;28;20212;-73
2022/11/07 00:54:21;;;;;;;16.80;11.17;;;8.10;99.90;;;;;;5067115;28;20206;-78
2022/11/07 00:56:46;;;;;;;14.90;10.50;;;8.20;99.90;;;;;;5055169;28;20588;-71
2022/11/07 00:59:12;;;;;;;14.20;10.23;;;8.20;99.90;;;;;;5057023;28;20204;-77
2022/11/07 01:01:38;;;;;;;16.97;10.87;;;8.20;99.90;;;;;;5059060;28;20176;-75
2022/11/07 01:06:48;;;;;;;16.20;10.90;;;8.30;99.90;;;;;;5055112;28;20205;-74
2022/11/07 01:09:17;;;;;;;15.07;9.97;;;8.30;99.90;;;;;;5059977;28;20189;-75
2022/11/07 01:11:44;;;;;;;17.53;11.03;;;8.30;99.90;;;;;;5059543;28;20636;-75
2022/11/07 01:14:10;;;;;;;15.83;10.27;;;8.30;99.90;;;;;;5049696;28;20700;-76
2022/11/07 01:16:37;;;;;;;14.57;9.97;;;8.30;99.90;;;;;;5073194;28;20194;-75
2022/11/07 01:19:04;;;;;;;16.57;10.43;;;8.30;99.90;;;;;;5077752;28;20199;-78
2022/11/07 01:21:30;;;;;;;14.77;9.97;;;8.40;99.90;;;;;;5065208;28;20180;-78
2022/11/07 01:23:56;;;;;;;14.77;9.80;;;8.30;99.90;;;;;;5071560;28;20186;-73
2022/11/07 01:26:22;;;;;;;16.83;10.27;;;8.40;99.90;;;;;;5078100;28;20248;-76
2022/11/07 01:28:47;;;;;;;16.13;10.47;;;8.40;99.90;;;;;;5078530;28;20219;-76
2022/11/07 01:31:15;;;;;;;15.70;9.63;;;8.50;99.90;;;;;;5072702;28;20214;-73
2022/11/07 01:33:40;;;;;;;15.70;9.97;;;8.40;99.90;;;;;;5073861;28;20273;-75
2022/11/07 01:36:09;;;;;;;15.90;10.63;;;8.40;99.90;;;;;;5078747;28;20282;-76
2022/11/07 01:38:39;;;;;;;24.13;9.60;;;8.40;99.90;;;;;;5074996;28;20779;-76
2022/11/07 01:41:21;;;;;;;13.33;9.17;;;8.40;99.90;;;;;;5074359;28;20191;-75
2022/11/07 01:43:53;;;;;;;14.67;9.73;;;8.40;99.90;;;;;;5064343;28;20185;-76
2022/11/07 01:46:19;;;;;;;15.23;9.80;;;8.40;99.90;;;;;;5096880;28;20175;-80
2022/11/07 01:48:51;;;;;;;16.33;10.03;;;8.40;99.90;;;;;;5073311;28;20710;-78
2022/11/07 01:51:18;;;;;;;16.80;10.23;;;8.30;99.90;;;;;;5073807;28;20171;-78
2022/11/07 01:53:44;;;;;;;15.17;9.83;;;8.30;99.90;;;;;;5076646;28;20179;-77
2022/11/07 01:56:15;;;;;;;14.13;9.67;;;8.40;99.90;;;;;;5068492;28;20553;-79
2022/11/07 01:58:41;;;;;;;14.27;9.63;;;8.40;99.90;;;;;;5068884;28;20245;-78
2022/11/07 02:01:07;;;;;;;14.37;9.73;;;8.40;99.90;;;;;;5077140;28;20175;-78
2022/11/07 02:03:33;;;;;;;15.70;9.13;;;8.40;99.90;;;;;;5088674;28;20281;-78
2022/11/07 02:06:05;;;;;;;12.37;9.00;;;8.50;99.90;;;;;;5073027;28;20198;-77
2022/11/07 02:08:33;;;;;;;15.50;9.33;;;8.50;99.90;;;;;;5074483;28;20235;-78
2022/11/07 02:11:01;;;;;;;14.70;9.47;;;8.50;99.90;;;;;;5078768;28;20170;-79
2022/11/07 02:13:29;;;;;;;12.17;8.83;;;8.50;99.90;;;;;;5073339;28;20183;-80
2022/11/07 02:15:57;;;;;;;13.97;8.53;;;8.50;99.90;;;;;;5078591;28;20195;-79
2022/11/07 02:18:24;;;;;;;11.93;8.47;;;8.50;99.90;;;;;;5079413;28;20255;-80
2022/11/07 02:20:51;;;;;;;13.57;9.17;;;8.60;99.90;;;;;;5078692;28;20181;-80
2022/11/07 02:23:37;;;;;;;14.63;8.83;;;8.60;99.90;;;;;;5074942;28;20262;-79
2022/11/07 02:26:02;;;;;;;16.70;9.07;;;8.60;99.90;;;;;;5079551;28;20289;-79
2022/11/07 02:28:30;;;;;;;11.63;8.50;;;8.60;99.90;;;;;;5078004;28;20603;-78
2022/11/07 02:30:55;;;;;;;11.20;8.33;;;8.60;99.90;;;;;;5067821;28;20183;-79
2022/11/07 02:33:22;;;;;;;13.40;8.53;;;8.60;99.90;;;;;;5080122;28;20243;-79
2022/11/07 02:35:49;;;;;;;11.93;8.23;;;8.60;99.90;;;;;;5080956;28;20734;-79
2022/11/07 02:38:31;;;;;;;13.40;8.40;;;8.60;99.90;;;;;;5085281;28;20188;-79
2022/11/07 02:41:15;;;;;;;13.27;8.27;;;8.70;99.90;;;;;;5059671;28;20258;-78
2022/11/07 02:43:47;;;;;;;12.00;8.53;;;8.70;99.90;;;;;;5079692;28;20232;-79
2022/11/07 02:46:14;;;;;;;12.37;8.83;;;8.70;99.90;;;;;;5081138;28;20180;-79
2022/11/07 02:48:52;;;;;;;10.40;8.10;;;8.70;99.90;;;;;;5072325;28;20537;-79
2022/11/07 02:51:18;;;;;;;13.37;8.77;;;8.70;99.90;;;;;;5077216;28;20712;-79
2022/11/07 02:53:45;;;;;;;13.17;8.33;;;8.70;99.90;;;;;;5076864;28;20178;-79
2022/11/07 02:56:10;;;;;;;12.20;7.57;;;8.70;99.90;;;;;;5066665;28;20231;-79
2022/11/07 02:58:36;;;;;;;12.80;8.10;;;8.70;99.90;;;;;;5079422;28;20174;-79
2022/11/07 03:01:05;;;;;;;12.37;7.70;;;8.80;99.90;;;;;;5076929;28;20177;-78
2022/11/07 03:03:33;;;;;;;11.77;8.30;;;8.80;99.90;;;;;;5086526;28;20539;-79
2022/11/07 03:05:59;;;;;;;10.37;7.63;;;8.80;99.90;;;;;;5076604;28;20194;-78
2022/11/07 03:08:24;;;;;;;10.87;8.27;;;8.80;99.90;;;;;;5072096;28;20252;-79
2022/11/07 03:10:50;;;;;;;12.33;8.33;;;8.80;99.90;;;;;;5081757;28;20186;-79
2022/11/07 03:13:15;;;;;;;9.37;7.63;;;8.90;99.90;;;;;;5079762;28;20172;-78
2022/11/07 03:15:41;;;;;;;13.50;7.93;;;8.90;99.90;;;;;;5076619;28;20613;-79
2022/11/07 03:18:06;;;;;;;11.13;7.57;;;8.90;99.90;;;;;;5080639;28;20569;-79
2022/11/07 03:20:32;;;;;;;13.57;8.67;;;8.90;99.90;;;;;;5088334;28;20206;-79
2022/11/07 03:22:57;;;;;;;11.40;6.97;;;9.00;99.90;;;;;;5081776;28;20203;-75
2022/11/07 03:25:23;;;;;;;10.10;7.50;;;8.90;99.90;;;;;;5078065;28;20241;-77
2022/11/07 03:27:49;;;;;;;11.57;7.73;;;8.90;99.90;;;;;;5081110;28;20668;-78
2022/11/07 03:30:15;;;;;;;11.90;8.30;;;9.00;99.90;;;;;;5086529;28;20645;-78
2022/11/07 03:32:41;;;;;;;11.90;7.63;;;9.00;99.90;;;;;;5078301;28;20182;-78
2022/11/07 03:35:07;;;;;;;11.90;8.43;;;9.10;99.90;;;;;;5085009;28;20202;-77
2022/11/07 03:37:33;;;;;;;12.10;7.43;;;9.10;99.90;;;;;;5079782;28;20246;-78
2022/11/07 03:39:58;;;;;;;10.10;6.77;;;9.00;99.90;;;;;;5069141;28;20277;-78
2022/11/07 03:42:24;;;;;;;11.50;7.83;;;9.10;99.90;;;;;;5085356;28;20182;-80
2022/11/07 03:44:49;;;;;;;11.03;7.83;;;9.10;99.90;;;;;;5083424;28;20198;-79
2022/11/07 03:47:15;;;;;;;10.97;6.80;;;9.10;99.90;;;;;;5087583;28;20206;-80
2022/11/07 03:49:40;;;;;;;12.33;7.97;;;9.10;99.90;;;;;;5082982;28;20201;-79
2022/11/07 03:52:06;;;;;;;10.63;7.17;;;9.10;99.90;;;;;;5083248;28;20178;-78
2022/11/07 03:54:31;;;;;;;11.20;7.60;;;9.10;99.90;;;;;;5082459;28;20227;-79
2022/11/07 03:56:57;;;;;;;10.97;7.87;;;9.10;99.90;;;;;;5082059;28;20187;-79
2022/11/07 03:59:23;;;;;;;11.17;7.20;;;9.10;99.90;;;;;;5084093;28;20276;-80
2022/11/07 04:01:48;;;;;;;11.07;7.20;;;9.10;99.90;;;;;;5089032;28;20264;-79
2022/11/07 04:04:14;;;;;;;9.90;7.17;;;9.10;99.90;;;;;;5085811;28;20548;-79
2022/11/07 04:06:39;;;;;;;10.53;7.37;;;9.10;99.90;;;;;;5081850;28;20182;-80
2022/11/07 04:09:05;;;;;;;10.10;7.57;;;9.10;99.90;;;;;;5081550;28;20193;-79
2022/11/07 04:17:17;;;;;;;9.90;7.60;;;9.10;99.90;;;;;;5085108;28;20683;-78
2022/11/07 04:19:43;;;;;;;10.17;7.33;;;9.10;99.90;;;;;;5083022;28;20546;-78
2022/11/07 04:22:09;;;;;;;9.80;6.93;;;9.10;99.90;;;;;;5087911;28;20170;-79
2022/11/07 04:24:35;;;;;;;12.67;8.27;;;9.10;99.90;;;;;;5078727;28;20221;-79
2022/11/07 04:29:45;;;;;;;10.30;7.53;;;9.10;99.90;;;;;;5085971;28;20194;-80
2022/11/07 04:32:10;;;;;;;9.53;6.83;;;9.10;99.90;;;;;;5077855;28;20178;-78
2022/11/07 04:34:36;;;;;;;10.10;6.93;;;9.20;99.90;;;;;;5086795;28;20205;-79
2022/11/07 04:37:01;;;;;;;7.50;6.33;;;9.10;99.90;;;;;;5077530;28;20663;-79
2022/11/07 04:39:27;;;;;;;8.63;6.57;;;9.20;99.90;;;;;;5073026;28;20219;-79
2022/11/07 04:41:55;;;;;;;11.60;7.27;;;9.20;99.90;;;;;;5083854;28;20178;-78
2022/11/07 04:44:21;;;;;;;8.87;6.70;;;9.20;99.90;;;;;;5084127;28;20202;-79
2022/11/07 04:46:46;;;;;;;11.10;7.17;;;9.20;99.90;;;;;;5076402;28;20175;-80
2022/11/07 04:49:14;;;;;;;9.93;6.90;;;9.20;99.90;;;;;;5081974;28;20183;-78
2022/11/07 04:51:43;;;;;;;8.07;6.27;;;9.20;99.90;;;;;;5085162;28;20178;-79
2022/11/07 04:54:15;;;;;;;9.63;6.90;;;9.20;99.90;;;;;;5081135;28;20708;-79
2022/11/07 04:56:40;;;;;;;9.20;6.77;;;9.20;99.90;;;;;;5072498;28;20190;-79
2022/11/07 04:59:06;;;;;;;7.67;6.40;;;9.20;99.90;;;;;;5078427;28;20199;-78
2022/11/07 05:01:32;;;;;;;9.37;6.43;;;9.20;99.90;;;;;;5072173;28;20183;-78
2022/11/07 05:03:57;;;;;;;9.37;6.87;;;9.30;99.90;;;;;;5080051;28;20182;-77
2022/11/07 05:06:23;;;;;;;9.33;6.57;;;9.30;99.90;;;;;;5074888;28;20177;-79
2022/11/07 05:08:49;;;;;;;9.10;6.50;;;9.30;99.90;;;;;;5078453;28;20261;-79
2022/11/07 05:11:14;;;;;;;11.67;6.40;;;9.30;99.90;;;;;;5075807;28;20184;-78
2022/11/07 05:13:40;;;;;;;8.57;6.47;;;9.30;99.90;;;;;;5071274;28;20180;-78
2022/11/07 05:16:14;;;;;;;9.13;6.20;;;9.30;99.90;;;;;;5076294;28;20204;-77
2022/11/07 05:18:39;;;;;;;9.23;6.00;;;9.30;99.90;;;;;;5076067;28;20179;-78
2022/11/07 05:21:05;;;;;;;10.00;6.30;;;9.30;99.90;;;;;;5081399;28;20232;-78
2022/11/07 05:23:30;;;;;;;7.87;5.70;;;9.30;99.90;;;;;;5071040;28;20183;-78
2022/11/07 05:25:56;;;;;;;8.23;5.90;;;9.40;99.90;;;;;;5076761;28;20246;-78
2022/11/07 05:28:27;;;;;;;8.27;6.17;;;9.30;99.90;;;;;;5082186;28;20213;-78
2022/11/07 05:30:56;;;;;;;8.03;5.90;;;9.40;99.90;;;;;;5063547;28;20186;-76
2022/11/07 05:33:22;;;;;;;9.30;5.63;;;9.40;99.90;;;;;;5078289;28;20183;-77
2022/11/07 05:35:48;;;;;;;7.83;5.97;;;9.40;99.90;;;;;;5077039;28;20227;-78
2022/11/07 05:38:14;;;;;;;7.77;5.90;;;9.40;99.90;;;;;;5075812;28;20217;-78
2022/11/07 05:40:40;;;;;;;7.60;5.67;;;9.40;99.90;;;;;;5069152;28;20217;-78
2022/11/07 05:43:08;;;;;;;7.00;5.53;;;9.40;99.90;;;;;;5075227;28;20189;-80
2022/11/07 05:45:36;;;;;;;8.10;5.90;;;9.30;99.90;;;;;;5079764;28;20227;-80
2022/11/07 05:48:08;;;;;;;7.47;5.50;;;9.30;99.90;;;;;;5074946;28;20530;-79
2022/11/07 05:50:34;;;;;;;6.57;5.40;;;9.40;99.90;;;;;;5075339;28;20210;-79
2022/11/07 05:53:01;;;;;;;7.57;5.57;;;9.40;99.90;;;;;;5075885;28;20208;-79
2022/11/07 05:55:26;;;;;;;10.17;5.70;;;9.30;99.90;;;;;;5079946;28;20203;-79
2022/11/07 05:57:52;;;;;;;6.63;5.20;;;9.40;99.90;;;;;;5073574;28;20179;-78
2022/11/07 06:00:18;;;;;;;7.60;5.60;;;9.40;99.90;;;;;;5081427;28;20576;-80
2022/11/07 06:02:52;;;;;;;6.30;5.40;;;9.40;99.90;;;;;;5083321;28;20732;-79
2022/11/07 06:05:17;;;;;;;7.60;5.97;;;9.40;99.90;;;;;;5078000;28;20744;-79
2022/11/07 06:07:43;;;;;;;8.93;5.37;;;9.40;99.90;;;;;;5084717;28;20266;-80
2022/11/07 06:10:09;;;;;;;9.87;5.17;;;9.40;99.90;;;;;;5081485;28;20183;-79
2022/11/07 06:12:34;;;;;;;8.07;5.17;;;9.40;99.90;;;;;;5075058;28;20243;-79
2022/11/07 06:15:00;;;;;;;8.77;5.50;;;9.40;99.90;;;;;;5082030;28;20687;-78
2022/11/07 06:17:25;;;;;;;7.50;4.90;;;9.50;99.90;;;;;;5075131;28;20190;-79
2022/11/07 06:19:51;;;;;;;6.20;4.83;;;9.50;99.90;;;;;;5082734;28;20210;-79
2022/11/07 06:22:16;;;;;;;7.37;5.10;;;9.50;99.90;;;;;;5079761;28;20208;-80
2022/11/07 06:24:42;;;;;;;7.03;5.37;;;9.40;99.90;;;;;;5083671;22;20190;-76
2022/11/07 06:27:07;;;;;;;6.33;5.13;;;9.50;99.90;;;;;;5035530;28;20180;-77
2022/11/07 06:29:33;;;;;;;8.07;5.37;;;9.50;99.90;;;;;;5026529;28;20187;-79
2022/11/07 06:31:58;;;;;;;8.40;5.17;;;9.50;99.90;;;;;;5058438;28;20286;-77
2022/11/07 06:34:24;;;;;;;7.83;5.23;;;9.50;99.90;;;;;;5051209;28;20262;-77
2022/11/07 06:36:54;;;;;;;7.83;5.13;;;9.50;99.90;;;;;;5039251;28;20642;-76
2022/11/07 06:39:20;;;;;;;8.83;4.90;;;9.50;99.90;;;;;;5057699;28;20256;-78
2022/11/07 06:41:47;;;;;;;6.37;4.90;;;9.50;99.90;;;;;;5053615;28;20188;-78
2022/11/07 06:44:13;;;;;;;6.73;5.17;;;9.50;99.90;;;;;;5055419;28;20175;-78
2022/11/07 06:46:39;;;;;;;9.47;5.10;;;9.50;99.90;;;;;;5033739;28;20953;-78
2022/11/07 06:49:04;;;;;;;7.27;5.23;;;9.50;99.90;;;;;;5050806;28;20594;-78
2022/11/07 06:51:30;;;;;;;5.53;4.50;;;9.50;99.90;;;;;;5055235;28;20186;-77
2022/11/07 06:53:56;;;;;;;5.67;4.57;;;9.60;99.90;;;;;;5052987;28;20256;-76
2022/11/07 06:56:22;;;;;;;6.17;4.60;;;9.60;99.90;;;;;;5047140;28;20602;-77
2022/11/07 06:58:48;;;;;;;6.37;5.17;;;9.60;99.90;;;;;;5055151;28;20195;-77
2022/11/07 07:01:14;;;;;;;9.00;4.80;;;9.70;99.90;;;;;;5055031;28;20179;-78
2022/11/07 07:03:40;;;;;;;5.00;3.80;;;9.70;99.90;;;;;;5051713;28;20176;-77
2022/11/07 07:06:08;;;;;;;5.43;4.50;;;9.70;99.90;;;;;;5057753;28;20244;-77
2022/11/07 07:08:34;;;;;;;5.63;4.43;;;9.70;99.90;;;;;;5054086;28;20222;-77
2022/11/07 07:11:05;;;;;;;7.47;4.30;;;9.70;99.90;;;;;;5051517;28;20262;-78
2022/11/07 07:13:31;;;;;;;5.50;4.60;;;9.80;99.90;;;;;;5054621;28;20179;-78
2022/11/07 07:15:57;;;;;;;5.93;3.70;;;9.80;99.90;;;;;;5057261;28;20200;-76
2022/11/07 07:18:24;;;;;;;6.60;4.53;;;9.80;99.90;;;;;;5037436;28;20172;-79
2022/11/07 07:20:50;;;;;;;6.93;3.73;;;9.90;99.90;;;;;;5033724;28;20682;-77
2022/11/07 07:23:18;;;;;;;8.17;4.17;;;9.90;99.90;;;;;;5043308;28;20261;-79
2022/11/07 07:25:45;;;;;;;4.93;4.00;;;10.00;99.90;;;;;;5037817;28;20223;-79
2022/11/07 07:28:10;;;;;;;5.40;4.13;;;10.10;99.90;;;;;;5051078;28;20211;-79
2022/11/07 07:30:36;;;;;;;5.60;4.20;;;10.10;99.90;;;;;;5057699;28;20182;-79
2022/11/07 07:33:02;;;;;;;8.07;4.03;;;10.20;99.90;;;;;;5038832;28;20187;-78
2022/11/07 07:35:27;;;;;;;5.50;3.63;;;10.20;99.90;;;;;;5052560;28;20208;-80
2022/11/07 07:37:53;;;;;;;5.23;3.67;;;10.20;99.90;;;;;;5051811;28;20179;-78
2022/11/07 07:40:19;;;;;;;6.03;3.83;;;10.30;99.90;;;;;;5058680;28;20225;-76
2022/11/07 07:42:44;;;;;;;5.67;3.63;;;10.30;99.90;;;;;;5054956;28;20176;-79
2022/11/07 07:45:12;;;;;;;4.87;3.37;;;10.30;99.90;;;;;;5053100;28;20278;-77
2022/11/07 07:47:38;;;;;;;7.13;4.00;;;10.30;99.90;;;;;;5040246;28;20171;-78
2022/11/07 07:50:07;;;;;;;6.27;3.60;;;10.30;99.90;;;;;;5053634;28;20175;-76
2022/11/07 07:52:32;;;;;;;5.93;3.33;;;10.30;99.90;;;;;;5053331;28;20262;-77
2022/11/07 07:54:58;;;;;;;9.13;3.90;;;10.50;99.90;;;;;;5042833;28;20350;-76
2022/11/07 07:57:23;;;;;;;7.40;3.57;;;11.20;99.90;;;;;;5055369;28;20179;-77
2022/11/07 07:59:49;;;;;;;3.07;2.77;;;12.20;99.90;;;;;;5052148;28;20203;-77
2022/11/07 08:02:14;;;;;;;4.37;3.20;;;12.80;99.90;;;;;;5053096;28;20695;-78
2022/11/07 08:04:40;;;;;;;5.67;3.27;;;13.40;99.90;;;;;;5053604;28;20556;-78
2022/11/07 08:07:06;;;;;;;5.77;3.10;;;13.70;99.90;;;;;;5057868;28;20242;-78
2022/11/07 08:09:35;;;;;;;5.23;3.20;;;13.90;99.90;;;;;;5054539;28;20180;-78
2022/11/07 08:12:04;;;;;;;7.60;4.60;;;14.20;99.90;;;;;;5047181;28;20179;-76
2022/11/07 08:14:30;;;;;;;6.07;4.00;;;14.20;99.90;;;;;;5060071;28;20728;-78
2022/11/07 08:16:56;;;;;;;6.28;2.95;;;14.40;99.90;;;;;;5058510;28;20306;-78
2022/11/07 08:19:22;;;;;;;10.00;5.78;;;14.60;99.90;;;;;;5054972;28;20203;-78
2022/11/07 08:21:47;;;;;;;6.63;3.30;;;14.50;99.90;;;;;;5057842;28;20266;-77
2022/11/07 08:24:13;;;;;;;4.38;2.78;;;14.40;99.90;;;;;;5059516;28;20171;-77
2022/11/07 08:26:38;;;;;;;3.90;2.60;;;14.30;99.90;;;;;;5055453;28;20281;-78
2022/11/07 08:29:05;;;;;;;4.07;2.60;;;14.20;99.90;;;;;;5055176;28;20190;-77
2022/11/07 08:31:30;;;;;;;3.23;2.43;;;14.30;99.90;;;;;;5034850;28;20271;-78
2022/11/07 08:33:59;;;;;;;4.03;2.78;;;14.20;99.90;;;;;;5055462;28;20263;-78
2022/11/07 08:36:26;;;;;;;4.28;2.72;;;14.30;99.90;;;;;;5036645;28;20295;-78
2022/11/07 08:38:52;;;;;;;9.60;2.80;;;14.40;99.90;;;;;;5056920;28;20200;-77
2022/11/07 08:41:18;;;;;;;4.60;2.70;;;14.30;99.90;;;;;;5062515;28;20216;-78
2022/11/07 08:43:44;;;;;;;4.47;2.10;;;14.40;99.90;;;;;;5056565;28;20211;-78
2022/11/07 08:46:10;;;;;;;6.72;2.90;;;14.10;99.90;;;;;;5054641;28;20223;-78
2022/11/07 08:48:35;;;;;;;3.15;2.17;;;14.00;99.90;;;;;;5038369;28;20221;-79
2022/11/07 08:51:04;;;;;;;4.03;2.28;;;13.90;99.90;;;;;;5058680;28;20179;-78
2022/11/07 08:53:30;;;;;;;3.40;1.90;;;13.70;99.90;;;;;;5037491;28;20180;-78
2022/11/07 08:56:06;;;;;;;2.70;2.03;;;13.50;99.90;;;;;;5049037;28;20192;-78
2022/11/07 08:58:32;;;;;;;3.42;2.30;;;13.20;99.90;;;;;;5058136;28;20900;-78
2022/11/07 09:00:58;;;;;;;4.68;2.42;;;13.00;99.90;;;;;;5055567;28;20291;-77
2022/11/07 09:03:24;;;;;;;3.05;1.95;;;12.70;99.90;;;;;;5034797;28;20712;-79
2022/11/07 09:05:50;;;;;;;3.72;2.13;;;12.70;99.90;;;;;;5036990;28;20243;-78
2022/11/07 09:08:15;;;;;;;4.95;2.13;;;12.70;99.90;;;;;;5059688;28;20525;-78
2022/11/07 09:10:41;;;;;;;3.90;2.60;;;12.70;99.90;;;;;;5055805;28;20236;-79
2022/11/07 09:13:07;;;;;;;3.30;2.63;;;12.70;99.90;;;;;;5055870;28;20212;-78
2022/11/07 09:15:32;;;;;;;4.47;2.50;;;12.70;99.90;;;;;;5059521;28;20218;-79
2022/11/07 09:18:05;;;;;;;3.07;1.90;;;12.90;99.90;;;;;;5040284;28;20218;-77
2022/11/07 09:20:32;;;;;;;5.33;2.07;;;12.80;99.90;;;;;;5049176;28;20211;-77
2022/11/07 09:22:58;;;;;;;4.37;2.17;;;12.90;99.90;;;;;;5062616;28;20355;-76
2022/11/07 09:25:25;;;;;;;5.03;2.00;;;12.90;99.90;;;;;;5039189;28;20211;-77
2022/11/07 09:27:50;;;;;;;5.07;2.30;;;13.00;99.90;;;;;;5053584;28;20190;-77
2022/11/07 09:30:17;;;;;;;4.57;1.80;;;13.30;99.90;;;;;;5055633;28;20596;-78
2022/11/07 09:32:43;;;;;;;3.08;1.70;;;13.80;99.90;;;;;;5052947;28;20188;-78
2022/11/07 09:35:08;;;;;;;3.30;2.08;;;14.30;99.90;;;;;;5050700;28;20687;-77
2022/11/07 09:37:37;;;;;;;4.93;2.33;;;14.70;99.90;;;;;;5050412;28;20194;-78
2022/11/07 09:40:04;;;;;;;2.47;1.70;;;14.80;99.90;;;;;;5055754;28;20199;-77
2022/11/07 09:43:00;;;;;;;5.25;2.08;;;14.70;99.90;;;;;;5055958;28;20200;-77
2022/11/07 09:45:28;;;;;;;2.42;1.88;;;14.60;99.90;;;;;;5051574;28;20257;-77
2022/11/07 09:47:58;;;;;;;3.42;1.90;;;14.60;99.90;;;;;;5055179;28;20252;-77
2022/11/07 09:50:41;;;;;;;2.95;1.80;;;14.60;99.90;;;;;;5056577;28;20210;-77
2022/11/07 09:53:24;;;;;;;7.30;2.63;;;14.40;99.90;;;;;;5035550;28;20230;-78
2022/11/07 09:55:53;;;;;;;3.85;1.98;;;14.70;99.90;;;;;;5052571;28;20203;-78
2022/11/07 09:58:22;;;;;;;2.35;1.60;;;14.80;99.90;;;;;;5036257;28;20610;-78
2022/11/07 10:00:47;;;;;;;3.63;2.10;;;14.50;99.90;;;;;;5052952;28;20290;-77
2022/11/07 10:03:13;;;;;;;3.60;2.00;;;14.90;99.90;;;;;;5052751;28;20696;-79
2022/11/07 10:06:00;;;;;;;3.58;1.67;;;14.90;99.90;;;;;;5041178;28;20196;-78
2022/11/07 10:08:50;;;;;;;4.28;2.30;;;15.20;99.90;;;;;;5038294;28;20540;-80
2022/11/07 10:11:41;;;;;;;5.20;2.10;;;15.40;99.90;;;;;;5060258;28;20184;-78
2022/11/07 10:14:10;;;;;;;4.43;1.65;;;15.50;99.90;;;;;;5057380;28;20187;-78
2022/11/07 10:16:50;;;;;;;2.67;1.70;;;15.50;99.90;;;;;;5057495;28;20200;-77
2022/11/07 10:19:22;;;;;;;4.72;2.75;;;15.40;99.90;;;;;;5034965;28;20706;-77
2022/11/07 10:22:17;;;;;;;4.70;2.25;;;15.50;99.90;;;;;;5057546;28;20243;-78
2022/11/07 10:24:43;;;;;;;7.85;2.38;;;15.50;99.90;;;;;;5055508;28;20207;-78
2022/11/07 10:27:11;;;;;;;5.07;1.75;;;15.40;99.90;;;;;;5057300;28;20183;-78
2022/11/07 10:29:49;;;;;;;2.85;1.70;;;15.20;99.90;;;;;;5034131;28;20259;-77
2022/11/07 10:32:35;;;;;;;3.13;1.67;;;15.30;99.90;;;;;;5034360;28;20228;-78
2022/11/07 10:35:23;;;;;;;2.90;2.22;;;15.40;99.90;;;;;;5034035;28;20203;-76
2022/11/07 10:38:00;;;;;;;2.92;1.85;;;15.40;99.90;;;;;;5046916;28;20651;-76
2022/11/07 10:40:38;;;;;;;2.65;1.67;;;15.40;99.90;;;;;;5033267;28;20194;-78
2022/11/07 10:43:07;;;;;;;3.60;1.85;;;15.50;99.90;;;;;;5057590;28;20172;-77
2022/11/07 10:45:36;;;;;;;2.58;1.55;;;15.50;99.90;;;;;;5049723;28;20207;-77
2022/11/07 10:48:03;;;;;;;6.15;2.55;;;15.50;99.90;;;;;;5056660;28;20191;-78
2022/11/07 10:50:31;;;;;;;4.20;1.90;;;15.40;99.90;;;;;;5040407;28;20175;-77
2022/11/07 10:53:08;;;;;;;3.50;1.60;;;15.20;99.90;;;;;;5055198;28;20176;-78
2022/11/07 10:55:46;;;;;;;3.83;1.70;;;15.20;99.90;;;;;;5050401;28;20284;-78
2022/11/07 10:58:19;;;;;;;8.00;2.40;;;15.20;99.90;;;;;;5060765;28;20164;-77
2022/11/07 11:00:56;;;;;;;2.92;1.73;;;15.40;99.90;;;;;;5036490;28;20679;-77
2022/11/07 11:03:29;;;;;;;4.78;1.83;;;15.40;99.90;;;;;;5040177;28;20221;-76
2022/11/07 11:05:55;;;;;;;6.35;2.03;;;15.50;99.90;;;;;;5054519;28;20207;-74
2022/11/07 11:08:26;;;;;;;3.47;1.83;;;15.50;99.90;;;;;;5057162;28;20177;-74
2022/11/07 11:10:51;;;;;;;5.22;2.00;;;15.60;99.90;;;;;;5052771;28;20175;-74
2022/11/07 11:13:32;;;;;;;6.35;3.10;;;15.60;99.90;;;;;;5052408;28;20167;-76
2022/11/07 11:16:06;;;;;;;2.33;1.55;;;15.70;99.90;;;;;;5054995;28;20250;-76
2022/11/07 11:18:32;;;;;;;3.80;1.90;;;15.80;99.90;;;;;;5052922;28;20187;-76
2022/11/07 11:21:02;;;;;;;4.72;2.22;;;15.80;99.90;;;;;;5050486;28;20211;-76
2022/11/07 11:23:30;;;;;;;3.47;1.80;;;15.70;99.90;;;;;;5056364;28;20205;-78
2022/11/07 11:26:01;;;;;;;4.43;1.92;;;15.50;99.90;;;;;;5035578;28;20829;-77
2022/11/07 11:28:32;;;;;;;4.80;2.00;;;15.40;99.90;;;;;;5052617;28;20214;-76
2022/11/07 11:31:05;;;;;;;4.72;2.08;;;15.50;99.90;;;;;;5059263;28;20175;-76
2022/11/07 11:33:40;;;;;;;4.80;1.88;;;15.40;99.90;;;;;;5054604;28;20200;-77
2022/11/07 11:36:18;;;;;;;3.92;2.00;;;15.30;99.90;;;;;;5049508;28;20207;-77
2022/11/07 11:38:51;;;;;;;2.70;1.58;;;15.20;99.90;;;;;;5032582;28;20715;-77
2022/11/07 11:41:24;;;;;;;5.20;1.92;;;15.10;99.90;;;;;;5051756;28;20171;-78
2022/11/07 11:44:27;;;;;;;3.28;1.42;;;15.10;99.90;;;;;;5031976;28;20762;-78
2022/11/07 11:47:15;;;;;;;2.58;1.55;;;15.20;99.90;;;;;;5048095;28;20243;-76
2022/11/07 11:49:52;;;;;;;2.97;1.77;;;15.20;99.90;;;;;;5052147;28;20212;-77
2022/11/07 11:52:24;;;;;;;4.35;1.67;;;15.20;99.90;;;;;;5054132;28;20276;-76
2022/11/07 11:54:52;;;;;;;4.40;1.77;;;15.30;99.90;;;;;;5052943;28;20223;-76
2022/11/07 11:57:33;;;;;;;4.75;2.05;;;15.40;99.90;;;;;;5051957;28;20175;-77
2022/11/07 12:00:15;;;;;;;5.30;1.92;;;15.50;99.90;;;;;;5035102;28;20759;-75
2022/11/07 12:03:08;;;;;;;6.00;1.63;;;15.40;99.90;;;;;;5051619;28;20203;-77
2022/11/07 12:06:03;;;;;;;2.42;1.63;;;15.40;99.90;;;;;;5050193;28;20266;-76
2022/11/07 12:08:34;;;;;;;6.10;2.33;;;15.30;99.90;;;;;;5041908;28;20207;-76
2022/11/07 12:11:29;;;;;;;6.38;1.60;;;15.30;99.90;;;;;;5052660;28;20211;-77
2022/11/07 12:14:15;;;;;;;5.55;1.92;;;15.40;99.90;;;;;;5049889;28;20314;-80
2022/11/07 12:16:44;;;;;;;4.75;1.70;;;15.30;99.90;;;;;;5051670;28;20217;-78
2022/11/07 12:19:27;;;;;;;4.45;1.67;;;15.30;99.90;;;;;;5053146;28;20243;-75
2022/11/07 12:22:08;;;;;;;4.60;1.73;;;15.40;99.90;;;;;;5049268;28;20693;-75
2022/11/07 12:25:00;;;;;;;5.47;1.92;;;15.40;99.90;;;;;;5034997;28;20312;-77
2022/11/07 12:27:48;;;;;;;3.30;1.95;;;15.30;99.90;;;;;;5045829;28;20180;-77
2022/11/07 12:33:11;;;;;;;5.53;1.90;;;15.20;99.90;;;;;;5055522;28;20226;-76
2022/11/07 12:36:09;;;;;;;3.85;2.53;;;15.30;99.90;;;;;;5046826;28;20195;-79
2022/11/07 12:39:07;;;;;;;4.70;2.30;;;15.40;99.90;;;;;;5039704;28;20589;-78
2022/11/07 12:41:46;;;;;;;4.35;1.77;;;15.40;99.90;;;;;;5054369;28;20219;-79
2022/11/07 12:44:36;;;;;;;6.47;2.42;;;15.50;99.90;;;;;;5047694;28;20204;-77
2022/11/07 12:47:12;;;;;;;5.18;1.60;;;15.50;99.90;;;;;;5055530;28;20253;-75
2022/11/07 12:49:46;;;;;;;2.78;1.40;;;15.40;99.90;;;;;;5051464;28;20238;-81
2022/11/07 12:52:33;;;;;;;4.35;1.60;;;15.30;99.90;;;;;;5036337;28;20877;-75
2022/11/07 12:55:04;;;;;;;4.60;1.55;;;15.20;99.90;;;;;;5047705;28;20215;-73
2022/11/07 12:57:32;;;;;;;6.20;1.77;;;15.00;99.90;;;;;;5054239;28;20592;-77
2022/11/07 13:00:14;;;;;;;5.90;1.95;;;15.00;99.90;;;;;;5050775;28;20192;-75
2022/11/07 13:02:50;;;;;;;5.30;2.00;;;15.10;99.90;;;;;;5048443;28;20210;-77
2022/11/07 13:05:38;;;;;;;6.25;2.05;;;15.10;99.90;;;;;;5053063;28;20589;-78
2022/11/07 13:08:14;;;;;;;4.45;1.75;;;15.10;99.90;;;;;;5036334;28;20216;-77
2022/11/07 13:11:02;;;;;;;3.10;2.10;;;15.20;99.90;;;;;;5024662;28;20216;-76
2022/11/07 13:13:36;;;;;;;6.82;2.15;;;15.10;99.90;;;;;;5028692;28;20208;-76